Cisco Butte, California Weather observations

Data are for observation ending at time listed.
 Day   Time    Ave.   Ave.  Ave.  Vector   Max.   Stn.    Total    Solar   Ave.   Snow 
  of    of     Air    Rel.  Wind   Wind    Wind   Baro.  Precip.   Rad.    Soil   Depth
Year   Day     Temp.  Hum.  Speed  Dir.    Gust   Pres.                    Temp.       
2015   (PST)    F      %     mph   deg.    mph     mb.     in.     W/m2     F      in. 
---------------------------------------------------------------------------------------  
 187   19:50   61.6    62    5.1   280      7.1   827.0    0.00       1    999.0  159.0
 187   20:00   61.3    63    4.1   283      5.6   827.0    0.00       0    999.0  159.0
 187   20:10   61.0    63    3.5   279      4.8   827.0    0.00       0    999.0  159.1
 187   20:20   60.9    63    3.0   282      3.9   827.0    0.00       0    999.0  159.1
 187   20:30   60.8    64    3.0   280      4.2   827.0    0.00       0    999.0  159.3
 187   20:40   60.5    64    3.6   278      4.9   828.0    0.00       0    999.0  159.3
 187   20:50   60.1    65    2.9   273      4.6   828.0    0.00       0    999.0  159.1
 187   21:00   59.8    66    1.9   269      3.5   828.0    0.00       0    999.0  159.2
 187   21:10   59.8    66    0.7   284      3.4   828.0    0.00       0    999.0  159.1
 187   21:20   59.8    65    1.4    80      3.1   828.0    0.00       0    999.0  159.2
 187   21:30   60.0    65    1.9    69      3.4   828.0    0.00       0    999.0  159.2
 187   21:40   59.5    69    1.4   111      2.8   828.0    0.00       0    999.0  159.2
 187   21:50   59.1    68    3.8   100      5.6   827.0    0.00       0    999.0  159.3
 187   22:00   58.8    70    4.4   106      6.6   827.0    0.00       0    999.0  159.2
 187   22:10   58.8    70    5.4   107      8.0   827.0    0.00       0    999.0  159.2
 187   22:20   58.5    70    5.6   107      7.6   827.0    0.00       0    999.0  159.4
 187   22:30   58.3    70    6.9   111      9.4   827.0    0.00       0    999.0  159.2
 187   22:40   58.4    70    5.9   107      8.1   827.0    0.00       0    999.0  159.2
 187   22:50   58.0    71    7.2   116      8.8   827.0    0.00       0    999.0  159.2
 187   23:00   58.2    70    6.3   118      8.4   827.0    0.00       0    999.0  159.1
 187   23:10   58.0    70    6.6   116      8.8   827.0    0.00       0    999.0  159.1
 187   23:20   57.8    70    6.3   113      8.3   827.0    0.00       0    999.0  159.2
 187   23:30   57.9    69    6.4   114      9.6   827.0    0.00       0    999.0  159.2
 187   23:40   57.8    69    9.3   113     12.6   827.0    0.00       0    999.0  159.3
 187   23:50   57.7    69    9.4   111     12.9   827.0    0.00       0    999.0  159.4
 188    0:00   57.8    68    8.3   103     13.2   827.0    0.00       0    999.0  159.4
 188    0:10   58.8    64    8.3   103     11.7   827.0    0.00       0    999.0  159.3
 188    0:20   60.0    59    7.4    98      9.6   827.0    0.00       0    999.0  159.2
 188    0:30   60.2    59    6.2    95      7.8   827.0    0.00       0    999.0  159.2
 188    0:40   59.7    60    5.7   103      7.2   827.0    0.00       0    999.0  159.2
 188    0:50   59.2    61    5.6   109      7.2   827.0    0.00       0    999.0  159.2
 188    1:00   59.2    60    5.7   105      7.8   826.0    0.00       0    999.0  159.1
 188    1:10   59.1    60    6.3   109      7.7   826.0    0.00       0    999.0  159.2
 188    1:20   58.8    61    7.4   104      9.9   826.0    0.00       0    999.0  159.1
 188    1:30   58.8    60    7.8   105     10.2   826.0    0.00       0    999.0  159.4
 188    1:40  999.0   999  999.0   999    999.0   999.0   999.00     999    999.0  999.0
 188    1:50   59.1    57    8.8   100     12.0   826.0    0.00       0    999.0  159.4
 188    2:00   59.3    57    8.3    98     11.2   826.0    0.00       0    999.0  159.4
 188    2:10   58.9    58    7.5   102     10.6   826.0    0.00       0    999.0  159.4
 188    2:20   58.9    57    7.9   108     10.4   826.0    0.00       0    999.0  159.4
 188    2:30   58.8    57    7.6   101     10.8   826.0    0.00       0    999.0  159.4
 188    2:40   58.7    58    8.2    95     10.7   826.0    0.00       0    999.0  159.4
 188    2:50   58.5    58    8.0   103     10.4   826.0    0.00       0    999.0  159.4
 188    3:00   58.2    58    7.9   106     10.0   826.0    0.00       0    999.0  159.4
 188    3:10   58.0    59    7.0   106      9.1   826.0    0.00       0    999.0  159.4
 188    3:20   58.4    57    6.6   104      8.8   826.0    0.00       0    999.0  159.4
 188    3:30   58.6    57    4.9   106      6.6   826.0    0.00       0    999.0  159.4
 188    3:40   58.5    57    5.3   103      6.9   826.0    0.00       0    999.0  159.4
 188    3:50   58.3    58    4.0   102      5.7   826.0    0.00       0    999.0  159.3
 188    4:00   58.6    57    3.7   103      5.5   826.0    0.00       0    999.0  159.3
 188    4:10   58.9    56    4.2   105      7.1   826.0    0.00       0    999.0  159.4
 188    4:20   58.6    56    3.3    86      5.3   826.0    0.00       0    999.0  159.3
 188    4:30   58.5    56    3.5    77      5.4   826.0    0.00       0    999.0  159.2
 188    4:40   57.6    58    4.4    84      6.4   826.0    0.00       1    999.0  159.3
 188    4:50   57.3    58    3.8    73      5.6   826.0    0.00       1    999.0  159.4
 188    5:00   57.0    59    2.8    73      5.0   826.0    0.00       4    999.0  159.2
 188    5:10   57.5    57    3.3    69      4.6   826.0    0.00       8    999.0  159.2
 188    5:20   57.4    57    3.7    80      5.9   826.0    0.00      15    999.0  159.3
 188    5:30   57.1    58    3.3    83      5.4   826.0    0.00      26    999.0  159.4
 188    5:40   57.6    57    4.1    83      6.4   826.0    0.00      68    999.0  159.4
 188    5:50   57.9    57    3.6    73      5.4   826.0    0.00      89    999.0  159.4
 188    6:00   58.8    55    2.2    96      4.7   826.0    0.00     101    999.0  159.4
 188    6:10   60.4    52    1.1    95      2.4   826.0    0.00     115    999.0  159.3
 188    6:20   61.9    51    3.1   297      4.8   826.0    0.00     133    999.0  159.3
 188    6:30   61.3    55    4.2   296      5.3   826.0    0.00     160    999.0  159.3
 188    6:40   60.6    58    4.2   291      5.9   826.0    0.00     176    999.0  159.3
 188    6:50   61.3    58    2.2   305      3.3   826.0    0.00     201    999.0  159.3
 188    7:00   63.0    55    2.0   291      3.6   826.0    0.00     238    999.0  159.3
 188    7:10   65.0    51    0.8   285      2.6   826.0    0.00     251    999.0  159.3
 188    7:20   65.9    49    0.5   188      1.8   826.0    0.00     216    999.0  159.3
 188    7:30   66.8    47    1.5   269      3.5   826.0    0.00     233    999.0  159.3
 188    7:40   65.0    52    3.7   277      6.0   826.0    0.00     308    999.0  159.3
 188    7:50   65.1    53    3.6   293      8.1   826.0    0.00     320    999.0  159.3
 188    8:00   66.2    51    2.1   273      6.1   826.0    0.00     332    999.0  159.3
 188    8:10   66.4    51    4.4   287      8.0   826.0    0.00     344    999.0  159.3
 188    8:20   65.7    52    4.2   284      9.1   826.0    0.00     383    999.0  159.3
 188    8:30   65.7    53    5.3   283      8.9   826.0    0.00     362    999.0  159.3
 188    8:40   65.5    54    5.6   273      8.7   826.0    0.00     410    999.0  159.1
 188    8:50   65.5    54    4.7   291     10.7   826.0    0.00     331    999.0  159.1
 188    9:00   65.7    53    5.4   285     11.5   826.0    0.00     483    999.0  159.1
 188    9:10   66.8    52    4.8   278     10.0   826.0    0.00     446    999.0  159.3
 188    9:20   67.2    52    6.5   271     11.5   826.0    0.00     429    999.0  159.3
 188    9:30   67.2    52    5.5   268     10.6   826.0    0.00     446    999.0  159.2
 188    9:40   68.3    51    5.2   271      9.9   826.0    0.00     469    999.0  159.3
 188    9:50   67.5    53    6.1   271     10.1   826.0    0.00     463    999.0  159.3
 188   10:00   67.4    52    3.9   256      8.3   826.0    0.00     301    999.0  159.3
 188   10:10   67.6    53    6.2   278      9.5   826.0    0.00     497    999.0  159.3
 188   10:20   65.9    56    7.9   275     11.2   826.0    0.00     319    999.0  158.9
 188   10:30   66.0    57    7.5   283     12.3   826.0    0.00     606    999.0  158.8
 188   10:40   66.5    56    5.9   283     11.5   826.0    0.00     619    999.0  159.0
 188   10:50   68.2    53    7.0   274     12.4   826.0    0.00     547    999.0  159.1
 188   11:00   67.7    53    8.4   286     13.1   826.0    0.00     633    999.0  159.1
 188   11:10   67.5    52    9.0   279     13.1   826.0    0.00     258    999.0  159.1
 188   11:20   67.7    52    9.6   278     15.6   826.0    0.00     533    999.0  159.1
 188   11:30   68.1    51    8.6   280     13.7   826.0    0.00     304    999.0  159.1
 188   11:40   68.5    50    9.8   282     14.3   825.0    0.00     133    999.0  159.1
 188   11:50   69.7    46    9.9   275     15.0   825.0    0.00     595    999.0  159.3
 188   12:00   69.5    47    9.1   282     15.3   825.0    0.00     634    999.0  159.3
 188   12:10   69.5    47   10.0   279     16.4   825.0    0.00     400    999.0  159.3
 188   12:20   68.4    48   10.2   276     16.3   825.0    0.00     305    999.0  159.3
 188   12:30   68.1    49   10.0   274     15.6   825.0    0.00     262    999.0  159.3
 188   12:40   67.2    51   10.8   281     17.2   825.0    0.00     206    999.0  159.1
 188   12:50   66.0    55   11.9   282     18.0   825.0    0.00     165    999.0  159.0
 188   13:00   65.0    59   10.2   278     14.8   825.0    0.00     120    999.0  158.8
 188   13:10   64.1    61   10.0   280     15.2   825.0    0.00      77    999.0  158.6
 188   13:20   63.4    62    9.0   260     15.7   825.0    0.00      59    999.0  125.8
 188   13:30   62.7    63    8.4   271     14.2   825.0    0.00      57    999.0   -0.3
 188   13:40   61.9    64    8.9   266     16.0   825.0    0.00      60    999.0   94.0
 188   13:50   61.7    64    5.5   272      9.5   825.0    0.00      56    999.0  157.3
 188   14:00   61.7    63    5.2   287      7.7   825.0    0.00      82    999.0  111.8
 188   14:10   62.0    62    5.3   277      7.6   825.0    0.00      74    999.0  158.4
 188   14:20   61.9    62    6.7   276      8.8   825.0    0.00      85    999.0  158.3
 188   14:30   62.0    63    6.6   275      9.3   825.0    0.00      73    999.0  126.5
 188   14:40   61.9    63    6.1   280      9.5   825.0    0.00      80    999.0  158.1
 188   14:50   61.8    63    7.5   281     11.2   825.0    0.00      79    999.0  158.7
 188   15:00   61.3    66   10.0   278     13.3   825.0    0.00      76    999.0  159.1
 188   15:10   60.9    69    8.7   278     11.8   825.0    0.00      85    999.0  159.1
 188   15:20   60.6    69   10.3   278     13.5   825.0    0.00      87    999.0  159.1
 188   15:30   60.1    68   10.0   280     13.9   825.0    0.00      90    999.0  159.0
 188   15:40   59.9    68    8.8   280     12.5   825.0    0.00     106    999.0  159.1
 188   15:50   60.1    67    7.3   275     10.6   825.0    0.00     140    999.0  159.1
 188   16:00   60.2    66    5.8   288      8.3   825.0    0.00     144    999.0  158.9
 188   16:10   60.1    66    5.3   280      8.2   825.0    0.00     129    999.0  158.9
 188   16:20   60.2    66    4.4   281      7.5   825.0    0.00     128    999.0  158.9
 188   16:30   60.4    66    3.1   263      5.4   825.0    0.00     120    999.0  158.7
 188   16:40   60.7    65    3.1   263      5.4   825.0    0.00     125    999.0  158.5
 188   16:50   61.4    64    2.1   264      3.7   824.0    0.00     125    999.0  158.7
 188   17:00   61.7    64    1.3   118      3.1   824.0    0.00     121    999.0  158.8
 188   17:10   61.3    65    1.3   136      3.7   824.0    0.00     128    999.0  158.8
 188   17:20   61.8    65    1.1   144      2.4   824.0    0.00     122    999.0  158.7
 188   17:30   61.9    65    1.4   136      4.5   824.0    0.00     113    999.0  159.0
 188   17:40   61.7    64    0.7    82      2.9   824.0    0.00      89    999.0  159.1
 188   17:50   62.1    65    2.9   276      5.2   824.0    0.00      69    999.0  158.7
 188   18:00   61.4    67    4.6   279      6.0   824.0    0.00      58    999.0  158.2
 188   18:10   60.8    69    5.3   275      7.5   824.0    0.00      57    999.0  158.6
 188   18:20   60.0    69    6.3   284      8.5   824.0    0.00      52    999.0  158.9
 188   18:30   59.5    70    5.6   282      8.1   824.0    0.00      48    999.0  159.1
 188   18:40   59.3    70    4.8   282      6.8   824.0    0.00      31    999.0  159.1
 188   18:50   59.0    70    4.4   281      5.8   824.0    0.00      21    999.0  159.1
 188   19:00   58.7    70    5.2   279      8.2   824.0    0.00      15    999.0  159.1
 188   19:10   58.4    70    5.1   277      7.4   824.0    0.00      10    999.0  159.1
 188   19:20   58.0    73    5.1   280      6.7   824.0    0.00       7    999.0  158.9
 188   19:30   57.4    75    5.7   281      7.5   824.0    0.00       2    999.0  158.6
 188   19:40   57.3    75    4.5   288      5.9   824.0    0.00       1    999.0  158.4

Return to Cisco Butte graphs page.


Western Regional Climate Center,wrcc@dri.edu